createdAt,value
2023-01-13T00:17:54.398Z,51.8
2023-01-13T00:37:54.368Z,51.9
2023-01-13T00:57:54.325Z,51.9
2023-01-13T01:17:54.350Z,52.0
2023-01-13T01:37:54.308Z,52.0
2023-01-13T01:57:54.290Z,52.0
2023-01-13T02:17:54.273Z,52.0
2023-01-13T02:37:54.205Z,52.1
2023-01-13T02:57:54.193Z,52.2
2023-01-13T03:17:54.175Z,52.2
2023-01-13T03:37:54.177Z,52.2
2023-01-13T03:57:54.166Z,52.2
2023-01-13T04:17:54.162Z,52.2
2023-01-13T04:37:54.080Z,51.9
2023-01-13T04:57:54.067Z,51.8
2023-01-13T05:17:54.039Z,51.6
2023-01-13T05:37:54.026Z,51.6
2023-01-13T05:57:53.965Z,51.5
2023-01-13T06:17:53.982Z,51.4
2023-01-13T06:37:53.933Z,51.4
2023-01-13T06:57:53.918Z,51.4
2023-01-13T07:17:53.894Z,51.3
2023-01-13T07:37:53.866Z,51.3
2023-01-13T07:57:53.859Z,51.3
2023-01-13T08:17:53.801Z,51.2
2023-01-13T08:37:53.792Z,51.3
2023-01-13T08:57:53.730Z,51.4
2023-01-13T09:17:53.717Z,51.0
2023-01-13T09:37:53.719Z,51.0
2023-01-13T09:57:53.651Z,51.1
2023-01-13T10:17:53.674Z,51.1
2023-01-13T10:37:53.627Z,51.1
2023-01-13T10:57:53.612Z,51.1
2023-01-13T11:17:53.703Z,51.1
2023-01-13T11:37:53.559Z,51.0
2023-01-13T11:57:53.504Z,51.0
2023-01-13T12:17:53.593Z,51.0
2023-01-13T12:37:53.474Z,50.9
2023-01-13T12:57:53.451Z,50.8
2023-01-13T13:17:53.417Z,50.8
2023-01-13T13:37:53.397Z,50.8
2023-01-13T13:57:53.447Z,50.8
2023-01-13T14:17:53.294Z,50.7
2023-01-13T14:37:53.269Z,50.6
2023-01-13T14:57:53.220Z,50.5
2023-01-13T15:17:53.171Z,50.5
2023-01-13T15:37:53.155Z,50.5
2023-01-13T15:57:53.193Z,50.5
2023-01-13T16:17:53.135Z,50.5
2023-01-13T16:37:53.144Z,50.6
2023-01-13T16:57:53.173Z,50.5
2023-01-13T17:17:53.159Z,50.4
2023-01-13T17:37:53.107Z,50.1
2023-01-13T17:57:53.087Z,50.2
2023-01-13T18:17:53.054Z,50.1
2023-01-13T18:37:53.018Z,50.0
2023-01-13T18:57:53.065Z,49.9
2023-01-13T19:17:52.976Z,49.9
2023-01-13T19:37:52.920Z,49.9
2023-01-13T19:57:52.937Z,49.8
2023-01-13T20:17:52.903Z,49.6
2023-01-13T20:37:52.864Z,49.6
2023-01-13T20:57:52.818Z,49.6
2023-01-13T21:17:52.834Z,49.6
2023-01-13T21:37:52.786Z,49.9
2023-01-13T21:57:52.779Z,50.0
2023-01-13T22:17:52.730Z,50.2
2023-01-13T22:37:52.720Z,50.4
2023-01-13T22:57:52.721Z,50.5
2023-01-13T23:17:52.657Z,50.6
2023-01-13T23:37:52.647Z,50.8
2023-01-13T23:57:52.605Z,50.9
